Portada
METAR-TAF:

METAR-TAF

Aeropuertos :

Aeropuerto de Madrid-Cuatro Vientos

Madrid-Cuatro Vientos, España

latitud: 40-23N, longitud: 003-47W, altitud: 690 m

Observación

El informe se hizo hace 7 horas y 30 minutos, a las 20:00 UTC
Viento 2 kt con dirección variable
Temperatura 15°C
Humedad 88%
Presión 1022 hPa
Visibilidad 10 km o más
sin nubes por debajo de 1500 m y sin presencia de cumulonimbus.

METAR: LEVS 212000Z VRB02KT CAVOK 15/13 Q1022

Hora: 05:30 (03:30 UTC)

Pronóstico

El informe se hizo hace 1 hora y 30 minutos, a las 02:00 UTC
Pronóstico válido del 22 a las 03 UTC al 22 a las 12 UTC
Viento 4 kt del norte-noreste
Visibilidad 10 km o más
sin nubes por debajo de 1500 m y sin presencia de cumulonimbus.

TAF: LEVS 220200Z 2203/2212 03004KT CAVOK

Observaciones y pronósticos meteorológicos de más de 4000 aeropuertos (mensajes METAR y TAF).

Los puntos amarillos y rojos representan las estaciones disponibles.

Ponga el ratón en el punto deseado para ver el nombre de la estación.

Haga clic para ver las observaciones y los pronósticos meteorológicos.

Para cambiar el mapa : haga clic en los botones verdes con una cruz de color negro para hacer un zoom, en el botón verde con un guión para alejar o en las flechas verdes para mapas adyacentes.


METAR-TAF: